Time;durP1;ratioP1;P1;durP2;ratioP2;P2;SDS_P1;SDS_P2;PMS_P1;PMS_P2;Temp;Humidity;BMP_temperature;BMP_pressure;BME280_temperature;BME280_humidity;BME280_pressure;Samples;Min_cycle;Max_cycle;Signal;HPM_P1;HPM_P2
2022/06/08 00:02:16;;;;;;;2.85;2.70;;;13.90;99.90;;;14.79;100.00;97695.22;5225599;28;20680;-60
2022/06/08 00:04:50;;;;;;;2.75;2.55;;;13.90;99.90;;;14.74;100.00;97691.56;5221198;28;20270;-60
2022/06/08 00:07:23;;;;;;;2.50;2.40;;;13.80;99.90;;;14.62;100.00;97702.28;5218477;28;20253;-60
2022/06/08 00:09:56;;;;;;;2.83;2.58;;;13.60;99.90;;;14.59;100.00;97696.13;5221616;28;20254;-60
2022/06/08 00:12:29;;;;;;;3.08;2.88;;;13.70;99.90;;;14.62;100.00;97703.94;5220604;28;20224;-60
2022/06/08 00:15:04;;;;;;;2.95;2.75;;;13.80;99.90;;;14.64;100.00;97699.75;5220621;28;20705;-60
2022/06/08 00:17:39;;;;;;;3.13;2.92;;;13.70;99.90;;;14.64;100.00;97689.47;5222925;28;20239;-60
2022/06/08 00:20:13;;;;;;;3.70;3.40;;;13.80;99.90;;;14.69;100.00;97697.38;5216651;28;20255;-60
2022/06/08 00:22:46;;;;;;;4.25;3.92;;;13.80;99.90;;;14.72;100.00;97682.91;5219866;28;20228;-61
2022/06/08 00:25:20;;;;;;;4.70;4.30;;;13.90;99.90;;;14.70;100.00;97681.97;5222110;28;20193;-59
2022/06/08 00:27:53;;;;;;;5.07;4.72;;;13.90;99.90;;;14.73;100.00;97683.78;5224703;28;20326;-60
2022/06/08 00:30:26;;;;;;;4.88;4.47;;;13.90;99.90;;;14.75;100.00;97675.31;5218917;28;20225;-60
2022/06/08 00:33:01;;;;;;;5.03;4.53;;;13.90;99.90;;;14.75;100.00;97677.88;5220783;28;20225;-60
2022/06/08 00:35:34;;;;;;;6.25;4.95;;;13.80;99.90;;;14.74;100.00;97676.13;5218559;28;20212;-61
2022/06/08 00:38:07;;;;;;;7.35;4.68;;;13.70;99.90;;;14.73;100.00;97684.66;5222896;28;20759;-60
2022/06/08 00:40:50;;;;;;;18.20;4.40;;;13.80;99.90;;;14.72;100.00;97672.63;5220881;28;20233;-60
2022/06/08 00:43:24;;;;;;;29.70;5.63;;;13.80;99.90;;;14.69;100.00;97672.50;5220850;28;20753;-58
2022/06/08 00:45:58;;;;;;;5.30;3.70;;;13.70;99.90;;;14.66;100.00;97672.41;5219212;28;20595;-60
2022/06/08 00:48:38;;;;;;;18.67;4.70;;;13.70;99.90;;;14.56;100.00;97678.00;5218112;28;20704;-59
2022/06/08 00:51:11;;;;;;;3.67;3.38;;;13.70;99.90;;;14.47;100.00;97669.91;5223703;28;20251;-58
2022/06/08 00:53:54;;;;;;;31.00;4.55;;;13.50;99.90;;;14.25;100.00;97669.06;5219206;28;20255;-57
2022/06/08 00:56:32;;;;;;;5.35;3.40;;;13.30;99.90;;;14.22;100.00;97674.06;5223279;28;20240;-62
2022/06/08 00:59:06;;;;;;;7.50;3.13;;;13.20;99.90;;;14.12;100.00;97679.69;5218901;28;20248;-58
2022/06/08 01:01:40;;;;;;;9.27;3.42;;;13.10;99.90;;;14.09;100.00;97671.84;5219359;28;20197;-58
2022/06/08 01:04:19;;;;;;;6.28;3.35;;;13.10;99.90;;;14.11;100.00;97665.94;5220098;28;20205;-64
2022/06/08 01:06:57;;;;;;;3.50;3.30;;;13.20;99.90;;;14.10;100.00;97668.44;5222144;28;20205;-59
2022/06/08 01:09:34;;;;;;;5.03;4.03;;;13.20;99.90;;;14.15;100.00;97672.09;5221122;28;20229;-58
2022/06/08 01:12:14;;;;;;;8.75;4.10;;;13.30;99.90;;;14.16;100.00;97663.53;5221876;28;20208;-57
2022/06/08 01:14:49;;;;;;;4.20;3.80;;;13.30;99.90;;;14.22;100.00;97665.47;5221319;28;20298;-58
2022/06/08 01:17:22;;;;;;;5.78;3.88;;;13.40;99.90;;;14.24;100.00;97662.16;5217802;28;20213;-58
2022/06/08 01:19:56;;;;;;;4.47;3.90;;;13.40;99.90;;;14.27;100.00;97662.28;5222025;28;20235;-62
2022/06/08 01:22:31;;;;;;;7.07;4.45;;;13.40;99.90;;;14.32;100.00;97655.63;5221175;28;20200;-61
2022/06/08 01:25:06;;;;;;;11.98;4.38;;;13.50;99.90;;;14.24;100.00;97662.16;5221564;28;20220;-59
2022/06/08 01:27:57;;;;;;;4.93;3.50;;;13.40;99.90;;;14.24;100.00;97658.72;5224751;28;20319;-56
2022/06/08 01:30:37;;;;;;;6.40;3.50;;;13.40;99.90;;;14.26;100.00;97649.38;5220548;28;20190;-60
2022/06/08 01:33:42;;;;;;;3.70;3.30;;;13.30;99.90;;;14.20;100.00;97648.31;5218286;28;20206;-62
2022/06/08 01:36:38;;;;;;;12.93;3.90;;;13.20;99.90;;;14.21;100.00;97644.03;5219678;28;20732;-60
2022/06/08 01:39:22;;;;;;;3.47;3.20;;;13.30;99.90;;;14.06;100.00;97640.88;5218392;28;20681;-59
2022/06/08 01:42:34;;;;;;;4.25;3.40;;;13.10;99.90;;;14.05;100.00;97644.25;5215797;28;20619;-58
2022/06/08 01:45:29;;;;;;;6.15;3.55;;;13.20;99.90;;;13.98;100.00;97632.84;5216699;28;20228;-59
2022/06/08 01:48:46;;;;;;;3.10;2.90;;;13.10;99.90;;;13.97;100.00;97626.84;5218598;28;20236;-58
2022/06/08 01:51:45;;;;;;;3.78;3.47;;;13.00;99.90;;;14.04;100.00;97621.94;5221905;28;20197;-61
2022/06/08 01:54:36;;;;;;;3.88;3.58;;;13.20;99.90;;;14.02;100.00;97623.56;5220957;28;20296;-60
2022/06/08 01:57:21;;;;;;;4.82;3.90;;;13.10;99.90;;;13.94;100.00;97626.72;5220495;28;20299;-58
2022/06/08 02:00:02;;;;;;;4.28;3.95;;;13.00;99.90;;;13.99;100.00;97624.31;5218698;28;20251;-61
2022/06/08 02:02:51;;;;;;;4.47;4.05;;;13.10;99.90;;;13.99;100.00;97619.19;5223352;28;20728;-57
2022/06/08 02:05:33;;;;;;;4.88;4.55;;;13.00;99.90;;;13.97;100.00;97611.44;5220059;28;20193;-62
2022/06/08 02:08:16;;;;;;;5.13;4.72;;;13.00;99.90;;;13.93;100.00;97612.09;5222022;28;20645;-61
2022/06/08 02:10:59;;;;;;;5.45;4.93;;;13.00;99.90;;;13.94;100.00;97605.31;5223133;28;20228;-62
2022/06/08 02:13:40;;;;;;;5.05;4.60;;;12.90;99.90;;;13.94;100.00;97613.88;5218409;28;20293;-58
2022/06/08 02:16:25;;;;;;;5.10;4.80;;;13.00;99.90;;;13.81;100.00;97613.31;5220666;28;20635;-57
2022/06/08 02:19:05;;;;;;;4.45;4.13;;;12.80;99.90;;;13.82;100.00;97608.25;5220444;28;20290;-62
2022/06/08 02:21:44;;;;;;;3.88;3.67;;;12.90;99.90;;;13.83;100.00;97604.88;5220641;28;20201;-59
2022/06/08 02:24:23;;;;;;;3.67;3.45;;;12.90;99.90;;;13.91;100.00;97606.06;5220570;28;20255;-62
2022/06/08 02:27:02;;;;;;;4.53;4.13;;;12.90;99.90;;;13.91;100.00;97611.19;5218657;28;20245;-58
2022/06/08 02:29:41;;;;;;;3.92;3.63;;;12.90;99.90;;;13.85;100.00;97605.81;5221884;28;20280;-60
2022/06/08 02:35:16;;;;;;;4.07;3.75;;;13.00;99.90;;;13.89;100.00;97601.66;5218378;28;20197;-61
2022/06/08 02:38:01;;;;;;;4.10;3.80;;;13.00;99.90;;;13.82;100.00;97600.56;5218822;28;20274;-60
2022/06/08 02:40:38;;;;;;;4.05;3.75;;;12.80;99.90;;;13.79;100.00;97602.09;5217052;28;20574;-60
2022/06/08 02:43:19;;;;;;;4.07;3.88;;;12.80;99.90;;;13.80;100.00;97599.59;5218863;28;20229;-61
2022/06/08 02:46:04;;;;;;;4.93;4.20;;;12.80;99.90;;;13.80;100.00;97609.88;5217068;28;20205;-63
2022/06/08 02:48:37;;;;;;;3.72;3.47;;;12.80;99.90;;;13.80;100.00;97602.19;5219673;28;20229;-62
2022/06/08 02:51:10;;;;;;;5.25;3.97;;;12.80;99.90;;;13.74;100.00;97601.94;5217079;28;20226;-57
2022/06/08 02:53:59;;;;;;;3.75;3.45;;;12.80;99.90;;;13.74;100.00;97596.78;5215282;28;20198;-59
2022/06/08 02:56:46;;;;;;;4.95;4.55;;;12.70;99.90;;;13.75;100.00;97601.09;5209115;28;20747;-62
2022/06/08 02:59:26;;;;;;;5.05;4.18;;;12.90;99.90;;;13.79;100.00;97594.38;5220110;28;20589;-58
2022/06/08 03:02:07;;;;;;;4.38;4.07;;;12.90;99.90;;;13.89;100.00;97592.25;5221580;28;20263;-60
2022/06/08 03:04:48;;;;;;;4.50;4.13;;;13.00;99.90;;;13.81;100.00;97592.78;5218300;28;20731;-60
2022/06/08 03:07:27;;;;;;;4.20;3.90;;;12.80;99.90;;;13.83;100.00;97593.72;5221264;28;20889;-58
2022/06/08 03:10:08;;;;;;;4.35;4.05;;;12.80;99.90;;;13.73;100.00;97589.88;5219033;28;20627;-61
2022/06/08 03:12:48;;;;;;;3.92;3.63;;;12.80;99.90;;;13.68;100.00;97588.84;5220516;28;20270;-59
2022/06/08 03:15:26;;;;;;;3.60;3.28;;;12.70;99.90;;;13.67;100.00;97590.50;5219196;28;20225;-60
2022/06/08 03:17:59;;;;;;;3.35;3.15;;;12.70;99.90;;;13.70;100.00;97587.19;5219673;28;20258;-60
2022/06/08 03:20:32;;;;;;;3.20;3.00;;;12.80;99.90;;;13.78;100.00;97585.81;5220807;28;20696;-57
2022/06/08 03:23:06;;;;;;;3.45;3.25;;;12.90;99.90;;;13.69;100.00;97582.88;5216010;28;20228;-60
2022/06/08 03:25:39;;;;;;;3.85;3.65;;;12.90;99.90;;;13.62;100.00;97586.91;5216766;28;20197;-58
2022/06/08 03:28:13;;;;;;;4.72;3.65;;;12.80;99.90;;;13.64;100.00;97576.69;5219003;28;20648;-60
2022/06/08 03:30:48;;;;;;;3.60;3.40;;;12.80;99.90;;;13.56;100.00;97572.91;5215108;28;20243;-61
2022/06/08 03:33:21;;;;;;;4.07;3.10;;;12.70;99.90;;;13.52;100.00;97574.50;5216053;28;20193;-58
2022/06/08 03:35:54;;;;;;;3.00;2.80;;;12.60;99.90;;;13.51;100.00;97577.88;5221476;28;20282;-58
2022/06/08 03:38:27;;;;;;;2.90;2.70;;;12.60;99.90;;;13.52;100.00;97575.38;5223009;28;20311;-61
2022/06/08 03:41:01;;;;;;;2.97;2.78;;;12.60;99.90;;;13.39;100.00;97583.41;5223902;28;20193;-60
2022/06/08 03:43:34;;;;;;;3.00;2.80;;;12.50;99.90;;;13.44;100.00;97576.72;5223464;28;20719;-60
2022/06/08 03:46:10;;;;;;;2.70;2.40;;;12.50;99.90;;;13.47;100.00;97576.84;5225432;28;20727;-60
2022/06/08 03:48:45;;;;;;;3.08;2.83;;;12.50;99.90;;;13.50;100.00;97576.09;5210591;28;20263;-60
2022/06/08 03:51:19;;;;;;;3.03;2.83;;;12.50;99.90;;;13.50;100.00;97571.84;5224464;28;20207;-60
2022/06/08 03:53:57;;;;;;;2.92;2.67;;;12.60;99.90;;;13.57;100.00;97565.28;5222053;28;20298;-60
2022/06/08 03:56:33;;;;;;;4.47;4.07;;;12.60;99.90;;;13.54;100.00;97562.59;5225099;28;20232;-60
2022/06/08 03:59:06;;;;;;;4.45;4.15;;;12.60;99.90;;;13.59;100.00;97560.19;5218143;28;20651;-61
2022/06/08 04:01:41;;;;;;;3.95;3.67;;;12.60;99.90;;;13.62;100.00;97566.34;5222322;28;20247;-60
2022/06/08 04:04:14;;;;;;;4.88;4.43;;;12.70;99.90;;;13.65;100.00;97561.34;5222442;28;20288;-60
2022/06/08 04:06:49;;;;;;;5.32;4.38;;;12.70;99.90;;;13.64;100.00;97563.84;5223195;28;20236;-60
2022/06/08 04:09:22;;;;;;;4.55;4.05;;;12.70;99.90;;;13.70;100.00;97564.06;5215818;28;20259;-60
2022/06/08 04:11:55;;;;;;;5.07;4.63;;;12.80;99.90;;;13.76;100.00;97559.19;5222323;28;20229;-60
2022/06/08 04:14:28;;;;;;;5.47;5.07;;;12.80;99.90;;;13.81;100.00;97557.66;5223219;28;20209;-61
2022/06/08 04:17:03;;;;;;;4.20;4.00;;;12.90;99.90;;;13.85;100.00;97551.84;5224458;28;20232;-60
2022/06/08 04:19:36;;;;;;;4.03;3.63;;;13.00;99.90;;;13.85;100.00;97556.09;5220847;28;20752;-60
2022/06/08 04:22:09;;;;;;;4.20;3.60;;;12.90;99.90;;;13.89;100.00;97564.00;5220052;28;20255;-60
2022/06/08 04:24:43;;;;;;;3.40;3.20;;;13.00;99.90;;;13.88;100.00;97561.38;5223985;28;20209;-60
2022/06/08 04:27:17;;;;;;;3.38;3.17;;;13.00;99.90;;;13.95;100.00;97565.94;5216873;28;20775;-61
2022/06/08 04:29:51;;;;;;;3.05;2.85;;;13.10;99.90;;;13.91;100.00;97559.81;5221117;28;20352;-61
2022/06/08 04:32:26;;;;;;;2.90;2.67;;;13.00;99.90;;;13.82;100.00;97567.16;5227628;28;20200;-59
2022/06/08 04:34:59;;;;;;;3.40;3.10;;;12.90;99.90;;;13.87;100.00;97565.63;5228320;28;20227;-61
2022/06/08 04:37:32;;;;;;;3.30;3.10;;;13.00;99.90;;;14.01;100.00;97565.28;5224075;28;20630;-60
2022/06/08 04:40:09;;;;;;;2.72;2.60;;;13.10;99.90;;;14.12;100.00;97561.44;5223073;28;20252;-60
2022/06/08 04:42:42;;;;;;;3.17;3.05;;;13.10;99.90;;;14.25;100.00;97558.53;5219142;28;20243;-60
2022/06/08 04:45:15;;;;;;;3.13;3.00;;;13.20;99.90;;;14.47;100.00;97561.88;5221081;28;20197;-59
2022/06/08 04:47:50;;;;;;;3.33;3.13;;;13.50;99.90;;;14.87;100.00;97565.09;5226787;28;20248;-60
2022/06/08 04:50:23;;;;;;;3.08;2.88;;;13.90;99.90;;;15.14;100.00;97569.47;5226523;28;20201;-60
2022/06/08 04:52:56;;;;;;;3.05;2.75;;;14.00;99.90;;;15.32;100.00;97567.53;5227613;28;20193;-60
2022/06/08 04:55:29;;;;;;;2.75;2.53;;;14.30;99.90;;;15.68;100.00;97574.75;5225361;28;20216;-60
2022/06/08 04:58:03;;;;;;;3.22;2.38;;;14.70;99.90;;;15.99;100.00;97565.41;5228350;28;20255;-60
2022/06/08 05:00:36;;;;;;;2.35;2.22;;;14.90;99.90;;;16.03;100.00;97566.38;5224596;28;20677;-61
2022/06/08 05:03:11;;;;;;;2.33;2.05;;;14.80;99.90;;;15.98;100.00;97555.91;5221963;28;20256;-61
2022/06/08 05:05:45;;;;;;;2.67;2.53;;;14.80;99.90;;;15.79;96.95;97549.31;5221692;28;20232;-60
2022/06/08 05:08:18;;;;;;;2.78;2.63;;;14.80;99.90;;;16.11;100.00;97545.16;5223296;28;20253;-61
2022/06/08 05:10:52;;;;;;;2.47;2.38;;;15.00;99.90;;;16.25;97.42;97542.09;5218837;28;20233;-60
2022/06/08 05:13:25;;;;;;;2.28;2.08;;;15.20;99.90;;;16.46;98.63;97540.16;5222733;28;20197;-61
2022/06/08 05:15:59;;;;;;;2.55;2.40;;;15.30;99.90;;;16.54;97.21;97542.94;5227679;28;20182;-58
2022/06/08 05:18:34;;;;;;;2.33;2.13;;;15.30;99.90;;;16.53;95.92;97543.78;5223952;28;20794;-60
2022/06/08 05:21:07;;;;;;;2.80;2.70;;;15.30;99.90;;;16.54;94.30;97543.84;5226797;28;21525;-61
2022/06/08 05:23:42;;;;;;;2.40;2.20;;;15.40;99.90;;;16.57;97.35;97540.47;5223281;28;20667;-60
2022/06/08 05:26:16;;;;;;;2.67;2.25;;;15.30;99.90;;;16.51;95.29;97538.59;5226617;28;20202;-59
2022/06/08 05:28:49;;;;;;;2.70;2.50;;;15.30;99.90;;;16.47;96.47;97539.31;5217024;28;20265;-60
2022/06/08 05:31:22;;;;;;;2.40;2.30;;;15.30;99.90;;;16.58;97.34;97547.38;5223856;28;20232;-60
2022/06/08 05:33:57;;;;;;;2.80;2.50;;;15.40;99.90;;;16.62;94.06;97550.06;5216965;28;21460;-60
2022/06/08 05:36:30;;;;;;;2.53;2.33;;;15.40;99.90;;;16.71;93.74;97546.00;5222363;28;20242;-60
2022/06/08 05:39:05;;;;;;;2.75;2.53;;;15.40;99.90;;;16.81;94.33;97540.31;5225293;28;20252;-60
2022/06/08 05:41:38;;;;;;;2.78;2.58;;;15.60;99.90;;;16.87;92.48;97540.47;5226408;28;20625;-61
2022/06/08 05:44:11;;;;;;;2.97;2.78;;;15.70;99.90;;;17.19;91.72;97535.28;5225864;28;20551;-61
2022/06/08 05:46:45;;;;;;;2.50;2.30;;;16.00;99.90;;;17.67;90.53;97539.94;5218543;28;20430;-60
2022/06/08 05:49:19;;;;;;;2.75;2.55;;;16.50;99.90;;;18.01;86.27;97536.44;5226739;28;20684;-61
2022/06/08 05:51:53;;;;;;;2.40;2.28;;;16.70;99.90;;;18.55;87.59;97538.47;5223102;28;20196;-61
2022/06/08 05:54:26;;;;;;;2.85;2.65;;;17.10;99.90;;;19.00;84.62;97532.47;5225151;28;20201;-61
2022/06/08 05:56:59;;;;;;;2.00;1.90;;;17.50;99.90;;;19.44;81.94;97528.94;5226190;28;20224;-61
2022/06/08 05:59:32;;;;;;;2.38;2.28;;;17.90;99.90;;;19.53;79.32;97535.13;5221744;28;20244;-61
2022/06/08 06:02:08;;;;;;;2.17;2.08;;;18.00;99.90;;;19.84;79.17;97519.22;5218714;28;20722;-61
2022/06/08 06:04:43;;;;;;;2.50;2.40;;;18.10;99.90;;;20.31;76.47;97521.59;5221741;28;20298;-61
2022/06/08 06:07:18;;;;;;;2.40;2.20;;;18.40;99.90;;;20.68;75.60;97526.41;5225061;28;20676;-63
2022/06/08 06:09:51;;;;;;;2.40;2.30;;;18.70;99.90;;;20.92;74.33;97522.38;5225588;28;20696;-61
2022/06/08 06:12:30;;;;;;;2.10;2.00;;;18.90;99.90;;;20.98;71.79;97519.84;5226274;28;20713;-61
2022/06/08 06:15:12;;;;;;;1.88;1.70;;;19.10;99.90;;;21.26;72.36;97522.69;5218473;28;20567;-61
2022/06/08 06:17:45;;;;;;;2.25;2.05;;;19.20;99.90;;;21.63;70.98;97518.72;5223769;28;20638;-62
2022/06/08 06:20:21;;;;;;;2.40;2.30;;;19.40;99.90;;;22.07;68.85;97512.09;5222811;28;20243;-61
2022/06/08 06:22:54;;;;;;;2.35;2.15;;;19.70;99.90;;;22.52;68.50;97513.19;5224432;28;20204;-61
2022/06/08 06:25:28;;;;;;;2.53;2.08;;;20.00;99.90;;;22.71;66.23;97517.63;5216025;28;20209;-61
2022/06/08 06:28:01;;;;;;;2.30;1.80;;;20.10;99.90;;;22.91;65.83;97507.25;5224892;28;20736;-61
2022/06/08 06:30:34;;;;;;;3.92;2.00;;;20.40;99.90;;;23.20;65.44;97506.47;5221408;28;20295;-60
2022/06/08 06:33:09;;;;;;;2.40;1.92;;;20.70;99.90;;;23.55;62.53;97506.50;5220268;28;20235;-61
2022/06/08 06:35:44;;;;;;;1.95;1.75;;;21.10;99.90;;;24.02;61.47;97505.63;5209788;28;20189;-59
2022/06/08 06:38:17;;;;;;;2.42;2.05;;;21.40;99.90;;;24.22;59.44;97505.59;5218431;28;20312;-61
2022/06/08 06:40:50;;;;;;;2.30;2.20;;;21.60;99.90;;;24.39;58.53;97497.69;5220937;28;20279;-60
2022/06/08 06:43:23;;;;;;;2.30;1.80;;;21.70;99.90;;;24.56;57.75;97495.06;5223298;28;20197;-59
2022/06/08 06:45:57;;;;;;;3.05;1.88;;;21.90;99.90;;;24.37;58.58;97487.22;5218513;28;20200;-61
2022/06/08 06:48:30;;;;;;;2.80;1.95;;;21.90;99.90;;;24.48;58.59;97495.06;5212177;28;20303;-62
2022/06/08 06:51:05;;;;;;;2.17;1.98;;;21.90;99.90;;;24.50;57.47;97491.56;5220116;28;20765;-60
2022/06/08 06:53:38;;;;;;;2.33;2.13;;;22.20;99.90;;;24.96;57.91;97487.88;5215745;28;20634;-59
2022/06/08 06:56:12;;;;;;;2.13;1.90;;;22.40;99.90;;;25.06;56.60;97489.53;5220922;28;20365;-60
2022/06/08 06:58:48;;;;;;;2.85;2.00;;;22.80;99.90;;;25.38;54.73;97488.47;5214987;28;20256;-62
2022/06/08 07:01:22;;;;;;;3.13;1.90;;;23.10;99.90;;;25.39;54.25;97498.06;5222730;28;20287;-60
2022/06/08 07:03:55;;;;;;;3.58;1.90;;;23.00;99.90;;;25.92;52.88;97491.50;5217814;28;20196;-61
2022/06/08 07:06:30;;;;;;;2.35;2.15;;;23.40;99.90;;;25.99;51.59;97482.72;5223778;28;20259;-61
2022/06/08 07:09:03;;;;;;;2.95;1.70;;;23.70;99.90;;;26.21;49.13;97487.72;5217229;28;20255;-60
2022/06/08 07:11:39;;;;;;;1.67;1.58;;;24.00;99.90;;;26.51;49.08;97479.53;5224671;28;20192;-60
2022/06/08 07:14:19;;;;;;;4.55;1.95;;;24.10;99.90;;;26.42;47.12;97482.22;5217660;28;20200;-59
2022/06/08 07:16:52;;;;;;;3.97;1.63;;;24.10;98.70;;;26.40;45.48;97470.88;5216803;28;20657;-59
2022/06/08 07:19:25;;;;;;;2.65;1.85;;;24.10;97.60;;;26.35;47.32;97470.06;5219851;28;20220;-60
2022/06/08 07:22:00;;;;;;;5.07;1.90;;;23.90;98.80;;;25.44;47.40;97472.72;5215736;28;20202;-59
2022/06/08 07:24:34;;;;;;;3.72;1.42;;;23.70;97.80;;;26.09;47.34;97461.66;5219775;28;20678;-59
2022/06/08 07:27:07;;;;;;;2.47;1.80;;;23.70;98.20;;;26.23;47.18;97462.38;5214162;28;20244;-59
2022/06/08 07:29:40;;;;;;;2.67;1.60;;;23.90;98.50;;;26.62;46.96;97468.03;5213202;28;20228;-60
2022/06/08 07:32:13;;;;;;;2.17;1.40;;;24.20;98.20;;;26.92;47.96;97466.75;5210966;28;20205;-59
2022/06/08 07:34:46;;;;;;;3.28;1.60;;;24.30;97.70;;;27.10;44.04;97461.25;5220384;28;20204;-59
2022/06/08 07:37:22;;;;;;;3.08;1.70;;;24.60;95.60;;;27.01;44.57;97463.13;5212332;28;20256;-58
2022/06/08 07:39:55;;;;;;;3.67;1.98;;;24.60;95.70;;;27.29;45.15;97458.34;5220346;28;20222;-59
2022/06/08 07:42:29;;;;;;;4.05;1.60;;;24.80;96.80;;;27.20;43.67;97456.75;5220944;28;20660;-59
2022/06/08 07:45:02;;;;;;;3.08;1.55;;;24.80;95.70;;;27.34;42.88;97453.91;5223477;28;20240;-58
2022/06/08 07:49:36;;;;;;;2.72;1.50;;;24.60;95.00;;;27.74;43.87;97454.06;5218967;28;20221;-58
2022/06/08 07:50:28;;;;;;;2.53;1.80;;;25.00;95.50;;;27.78;41.76;97442.59;5220660;28;20263;-58
2022/06/08 07:53:02;;;;;;;4.20;1.58;;;25.00;94.70;;;28.16;41.64;97435.81;5219541;28;20225;-56
2022/06/08 07:55:36;;;;;;;3.00;1.45;;;25.30;94.30;;;27.95;41.62;97436.22;5215766;28;20255;-55
2022/06/08 07:58:09;;;;;;;3.00;1.70;;;25.40;93.60;;;28.37;40.63;97431.00;5216764;28;20249;-58
2022/06/08 08:00:46;;;;;;;3.10;1.35;;;25.40;93.10;;;28.65;41.06;97419.03;5220820;28;20220;-59
2022/06/08 08:03:20;;;;;;;3.03;1.80;;;25.70;93.90;;;29.13;40.13;97416.19;5218586;28;20208;-59
2022/06/08 08:05:53;;;;;;;4.13;1.63;;;26.20;93.50;;;29.10;38.42;97410.13;5218345;28;20231;-59
2022/06/08 08:08:28;;;;;;;3.58;1.27;;;26.00;92.20;;;29.08;37.70;97407.53;5222712;28;20217;-59
2022/06/08 08:11:01;;;;;;;2.10;1.33;;;26.00;91.70;;;29.15;38.05;97402.97;5219722;28;20893;-58
2022/06/08 08:13:36;;;;;;;4.20;1.90;;;25.80;91.80;;;28.92;38.12;97403.50;5217361;28;20240;-59
2022/06/08 08:16:09;;;;;;;3.55;1.58;;;26.00;91.60;;;28.61;38.13;97406.81;5218852;28;20228;-59
2022/06/08 08:18:42;;;;;;;2.78;1.40;;;26.00;91.30;;;28.39;38.23;97410.81;5213897;28;20228;-57
2022/06/08 08:21:21;;;;;;;2.42;1.38;;;25.60;91.30;;;27.92;40.55;97404.75;5225657;28;20203;-58
2022/06/08 08:23:55;;;;;;;4.10;1.70;;;25.50;92.20;;;27.88;39.45;97403.94;5218894;28;20255;-59
2022/06/08 08:26:29;;;;;;;3.17;1.70;;;25.60;90.60;;;27.18;39.64;97390.28;5219280;28;20228;-60
2022/06/08 08:29:02;;;;;;;3.45;1.48;;;25.20;90.80;;;27.17;42.27;97394.66;5216815;28;20249;-56
2022/06/08 08:31:37;;;;;;;4.00;1.52;;;25.20;92.70;;;26.97;40.76;97380.97;5216735;28;20252;-58
2022/06/08 08:34:11;;;;;;;2.30;1.30;;;25.30;91.50;;;26.94;41.23;97387.13;5216673;28;20224;-61
2022/06/08 08:36:45;;;;;;;3.03;1.52;;;24.90;91.50;;;26.89;41.91;97378.47;5219058;28;20229;-59
2022/06/08 08:39:19;;;;;;;2.67;1.50;;;25.00;91.50;;;26.82;41.12;97376.84;5220326;28;20244;-58
2022/06/08 08:44:47;;;;;;;1.77;1.20;;;25.20;89.60;;;27.31;39.86;97377.81;5222224;28;20573;-57
2022/06/08 08:47:33;;;;;;;2.05;1.42;;;25.70;89.60;;;27.37;39.36;97369.84;5219836;28;20220;-59
2022/06/08 08:50:18;;;;;;;2.35;1.67;;;25.80;88.90;;;27.40;39.28;97361.91;5226227;28;20586;-58
2022/06/08 08:52:56;;;;;;;4.32;1.80;;;25.60;89.00;;;26.72;40.73;97369.97;5218210;28;20577;-58
2022/06/08 08:55:39;;;;;;;3.15;1.30;;;25.40;90.00;;;26.84;38.79;97374.16;5232835;28;20192;-58
2022/06/08 08:58:16;;;;;;;2.05;1.10;;;25.20;86.90;;;26.99;37.77;97363.47;5228203;28;20274;-59
2022/06/08 09:00:53;;;;;;;1.75;1.30;;;25.40;85.50;;;27.25;37.28;97360.44;5223643;28;20189;-58
2022/06/08 09:03:32;;;;;;;1.67;1.10;;;25.70;84.50;;;27.27;37.74;97352.50;5223646;28;20292;-59
2022/06/08 09:06:14;;;;;;;2.45;1.30;;;25.80;83.90;;;27.29;37.76;97345.47;5225173;28;20403;-58
2022/06/08 09:08:51;;;;;;;3.38;1.50;;;26.00;85.10;;;27.44;38.99;97354.84;5220523;28;20248;-58
2022/06/08 09:11:31;;;;;;;2.30;1.33;;;26.10;86.00;;;27.47;38.56;97349.53;5228247;28;20211;-59
2022/06/08 09:14:13;;;;;;;1.80;1.20;;;26.20;85.20;;;27.52;38.46;97342.44;5222638;28;20228;-59
2022/06/08 09:16:49;;;;;;;2.65;1.40;;;26.10;85.40;;;27.50;37.37;97344.22;5219006;28;20569;-58
2022/06/08 09:19:29;;;;;;;2.92;1.58;;;26.00;84.00;;;27.22;37.28;97344.72;5221285;28;20212;-57
2022/06/08 09:22:23;;;;;;;2.50;1.40;;;25.60;83.90;;;26.84;38.03;97343.59;5224828;28;20593;-59
2022/06/08 09:25:00;;;;;;;2.85;1.42;;;25.30;84.70;;;26.84;39.14;97326.97;5225666;28;20258;-60
2022/06/08 09:27:38;;;;;;;2.90;1.48;;;25.40;85.90;;;27.00;38.50;97325.81;5221301;28;20278;-58
2022/06/08 09:30:18;;;;;;;2.80;1.50;;;25.40;86.10;;;26.69;40.42;97325.44;5227414;28;20254;-58
2022/06/08 09:32:54;;;;;;;3.65;1.67;;;25.20;88.40;;;26.60;40.05;97333.47;5226375;28;20196;-58
2022/06/08 09:35:32;;;;;;;2.70;1.50;;;25.20;87.30;;;26.67;41.60;97333.38;5224113;28;20246;-57
2022/06/08 09:38:11;;;;;;;2.40;1.50;;;25.20;90.00;;;26.43;40.58;97337.16;5222661;28;20266;-59
2022/06/08 09:40:54;;;;;;;1.85;1.40;;;25.00;88.10;;;26.21;40.80;97335.72;5221650;28;20266;-59
2022/06/08 09:44:21;;;;;;;2.65;1.60;;;24.60;88.60;;;26.15;40.33;97320.97;5227332;28;20559;-59
2022/06/08 09:53:21;;;;;;;10.68;9.73;;;24.70;87.70;;;26.11;39.93;97318.41;5224464;28;20243;-57
2022/06/08 09:56:06;;;;;;;2.75;2.35;;;24.70;87.20;;;26.00;38.52;97314.19;5224072;28;20227;-58
2022/06/08 09:59:04;;;;;;;2.88;2.00;;;24.40;85.10;;;25.91;39.43;97308.19;5216930;28;20221;-58
2022/06/08 10:01:45;;;;;;;1.90;1.50;;;24.50;86.00;;;25.87;39.54;97298.63;5224115;28;20201;-58
2022/06/08 10:04:54;;;;;;;3.50;1.52;;;24.50;86.20;;;25.87;39.89;97294.28;5224023;28;20303;-57
2022/06/08 10:07:38;;;;;;;3.20;1.50;;;24.60;88.00;;;25.98;39.91;97294.13;5224631;28;20626;-57
2022/06/08 10:10:29;;;;;;;2.38;1.20;;;24.80;85.30;;;25.77;38.09;97283.00;5222798;28;20614;-59
2022/06/08 10:13:13;;;;;;;1.65;1.25;;;24.70;82.40;;;25.95;36.80;97287.16;5220680;28;20197;-58
2022/06/08 10:15:51;;;;;;;2.17;1.27;;;24.70;80.90;;;26.04;37.31;97288.78;5218342;28;20201;-58
2022/06/08 10:18:31;;;;;;;2.10;1.30;;;24.80;81.80;;;26.04;36.93;97278.31;5224090;28;20266;-59
2022/06/08 10:21:14;;;;;;;1.77;1.20;;;24.80;81.10;;;26.03;36.64;97285.31;5222388;28;20594;-57
2022/06/08 10:23:56;;;;;;;2.00;1.40;;;24.70;80.30;;;26.09;35.26;97276.50;5224319;28;20491;-55
2022/06/08 10:26:34;;;;;;;2.10;1.15;;;25.00;78.70;;;26.29;35.93;97269.22;5218485;28;20197;-58
2022/06/08 10:29:16;;;;;;;1.55;1.13;;;25.30;77.90;;;25.91;34.90;97263.69;5225052;28;20228;-57
2022/06/08 10:31:59;;;;;;;1.60;1.30;;;24.90;76.10;;;25.87;35.87;97261.97;5221835;28;20676;-59
2022/06/08 10:34:36;;;;;;;2.25;1.20;;;24.80;77.60;;;25.66;36.04;97261.34;5222350;28;20243;-58
2022/06/08 10:37:16;;;;;;;2.30;1.58;;;24.50;78.90;;;25.62;36.74;97257.91;5226487;28;20224;-59
2022/06/08 10:39:51;;;;;;;1.40;1.30;;;24.60;79.10;;;25.46;35.83;97253.72;5219152;28;20656;-58
2022/06/08 10:42:43;;;;;;;1.77;1.20;;;24.30;77.50;;;25.03;34.53;97251.53;5225518;28;20196;-57
2022/06/08 10:45:45;;;;;;;2.00;1.30;;;23.90;75.50;;;25.08;36.20;97243.66;5223109;28;20200;-57
2022/06/08 10:48:45;;;;;;;3.28;1.30;;;23.90;78.30;;;24.95;35.29;97238.56;5226064;28;20224;-58
2022/06/08 10:51:41;;;;;;;1.25;1.10;;;23.90;76.70;;;25.09;36.58;97240.16;5218312;28;20637;-58
2022/06/08 10:54:55;;;;;;;1.30;1.20;;;24.00;78.70;;;25.40;36.87;97235.47;5213478;28;20205;-56
2022/06/08 10:57:50;;;;;;;1.70;1.10;;;24.30;79.70;;;25.51;34.41;97237.97;5208468;28;20221;-58
2022/06/08 11:00:58;;;;;;;2.70;1.42;;;24.50;74.90;;;25.62;33.92;97229.09;5212402;28;20197;-58
2022/06/08 11:03:56;;;;;;;1.85;1.00;;;24.50;74.40;;;25.79;35.88;97218.41;5215230;28;20204;-58
2022/06/08 11:07:03;;;;;;;1.33;1.23;;;24.80;78.50;;;25.87;35.18;97212.22;5222921;28;20240;-58
2022/06/08 11:09:56;;;;;;;2.15;1.35;;;24.80;75.60;;;25.88;35.58;97206.97;5214023;28;20224;-57
2022/06/08 11:13:05;;;;;;;2.13;1.13;;;24.80;77.00;;;25.95;32.77;97208.59;5221347;28;20256;-59
2022/06/08 11:15:49;;;;;;;1.27;1.10;;;24.90;71.50;;;26.01;32.95;97212.88;5210764;28;20718;-58